sensor_id;sensor_type;location;lat;lon;timestamp;pressure;altitude;pressure_sealevel;temperature;humidity
34235;BME280;20500;49.856;20.290;2023-12-20T00:01:29;98395.69;;;3.34;63.45
34235;BME280;20500;49.856;20.290;2023-12-20T00:04:34;98391.10;;;3.43;63.19
34235;BME280;20500;49.856;20.290;2023-12-20T00:07:40;98390.86;;;3.51;63.27
34235;BME280;20500;49.856;20.290;2023-12-20T00:10:46;98393.67;;;3.44;63.35
34235;BME280;20500;49.856;20.290;2023-12-20T00:13:52;98392.55;;;3.34;63.53
34235;BME280;20500;49.856;20.290;2023-12-20T00:16:58;98387.75;;;3.41;63.33
34235;BME280;20500;49.856;20.290;2023-12-20T00:20:05;98380.22;;;3.57;62.96
34235;BME280;20500;49.856;20.290;2023-12-20T00:23:11;98375.48;;;3.80;62.78
34235;BME280;20500;49.856;20.290;2023-12-20T00:26:16;98371.81;;;4.04;62.72
34235;BME280;20500;49.856;20.290;2023-12-20T00:29:22;98367.64;;;4.20;62.51
34235;BME280;20500;49.856;20.290;2023-12-20T00:32:28;98360.50;;;4.30;62.60
34235;BME280;20500;49.856;20.290;2023-12-20T00:35:34;98361.06;;;4.36;62.70
34235;BME280;20500;49.856;20.290;2023-12-20T00:38:39;98361.56;;;4.40;62.55
34235;BME280;20500;49.856;20.290;2023-12-20T00:41:45;98354.58;;;4.45;62.40
34235;BME280;20500;49.856;20.290;2023-12-20T00:44:51;98347.05;;;4.57;62.19
34235;BME280;20500;49.856;20.290;2023-12-20T00:47:57;98342.97;;;4.70;62.10
34235;BME280;20500;49.856;20.290;2023-12-20T00:51:04;98341.68;;;4.78;61.92
34235;BME280;20500;49.856;20.290;2023-12-20T00:54:10;98336.54;;;4.83;61.80
34235;BME280;20500;49.856;20.290;2023-12-20T00:57:15;98336.64;;;4.84;61.64
34235;BME280;20500;49.856;20.290;2023-12-20T01:00:22;98337.98;;;4.81;61.81
34235;BME280;20500;49.856;20.290;2023-12-20T01:03:27;98328.88;;;4.80;61.76
34235;BME280;20500;49.856;20.290;2023-12-20T01:06:33;98323.38;;;4.85;61.75
34235;BME280;20500;49.856;20.290;2023-12-20T01:09:39;98319.58;;;4.80;62.03
34235;BME280;20500;49.856;20.290;2023-12-20T01:12:46;98321.73;;;4.63;62.09
34235;BME280;20500;49.856;20.290;2023-12-20T01:15:51;98323.70;;;4.47;62.04
34235;BME280;20500;49.856;20.290;2023-12-20T01:18:57;98321.58;;;4.32;62.19
34235;BME280;20500;49.856;20.290;2023-12-20T01:22:03;98321.44;;;4.25;62.34
34235;BME280;20500;49.856;20.290;2023-12-20T01:25:10;98321.89;;;4.17;62.33
34235;BME280;20500;49.856;20.290;2023-12-20T01:28:14;98316.35;;;4.07;62.28
34235;BME280;20500;49.856;20.290;2023-12-20T01:31:20;98316.39;;;3.96;62.15
34235;BME280;20500;49.856;20.290;2023-12-20T01:34:26;98308.77;;;3.86;62.41
34235;BME280;20500;49.856;20.290;2023-12-20T01:37:30;98310.25;;;3.79;62.45
34235;BME280;20500;49.856;20.290;2023-12-20T01:40:36;98310.00;;;3.71;62.49
34235;BME280;20500;49.856;20.290;2023-12-20T01:43:42;98305.16;;;3.59;62.44
34235;BME280;20500;49.856;20.290;2023-12-20T01:46:55;98297.35;;;3.49;62.48
34235;BME280;20500;49.856;20.290;2023-12-20T01:50:02;98288.98;;;3.43;62.59
34235;BME280;20500;49.856;20.290;2023-12-20T01:53:10;98281.58;;;3.37;62.58
34235;BME280;20500;49.856;20.290;2023-12-20T01:56:18;98276.33;;;3.32;62.73
34235;BME280;20500;49.856;20.290;2023-12-20T01:59:24;98271.40;;;3.26;62.78
34235;BME280;20500;49.856;20.290;2023-12-20T02:02:30;98264.14;;;3.22;63.00
34235;BME280;20500;49.856;20.290;2023-12-20T02:05:37;98255.69;;;3.16;62.71
34235;BME280;20500;49.856;20.290;2023-12-20T02:08:43;98253.16;;;3.15;62.58
34235;BME280;20500;49.856;20.290;2023-12-20T02:11:49;98249.17;;;3.17;62.74
34235;BME280;20500;49.856;20.290;2023-12-20T02:14:54;98245.76;;;3.17;62.79
34235;BME280;20500;49.856;20.290;2023-12-20T02:18:00;98243.06;;;3.13;62.80
34235;BME280;20500;49.856;20.290;2023-12-20T02:21:07;98240.97;;;3.08;62.88
34235;BME280;20500;49.856;20.290;2023-12-20T02:24:13;98240.45;;;3.02;62.89
34235;BME280;20500;49.856;20.290;2023-12-20T02:27:19;98231.48;;;2.97;62.88
34235;BME280;20500;49.856;20.290;2023-12-20T02:30:25;98228.44;;;2.97;62.94
34235;BME280;20500;49.856;20.290;2023-12-20T02:33:31;98223.63;;;3.02;63.11
34235;BME280;20500;49.856;20.290;2023-12-20T02:36:36;98221.46;;;2.97;63.02
34235;BME280;20500;49.856;20.290;2023-12-20T02:39:42;98225.44;;;2.89;63.12
34235;BME280;20500;49.856;20.290;2023-12-20T02:42:48;98226.56;;;2.87;63.16
34235;BME280;20500;49.856;20.290;2023-12-20T02:45:54;98227.18;;;2.81;63.12
34235;BME280;20500;49.856;20.290;2023-12-20T02:49:00;98217.06;;;2.87;63.02
34235;BME280;20500;49.856;20.290;2023-12-20T02:52:06;98211.95;;;3.02;62.70
34235;BME280;20500;49.856;20.290;2023-12-20T02:55:12;98208.67;;;3.13;62.78
34235;BME280;20500;49.856;20.290;2023-12-20T02:58:18;98202.38;;;3.17;62.80
34235;BME280;20500;49.856;20.290;2023-12-20T03:01:23;98196.40;;;3.23;62.53
34235;BME280;20500;49.856;20.290;2023-12-20T03:04:28;98192.54;;;3.27;62.64
34235;BME280;20500;49.856;20.290;2023-12-20T03:07:34;98191.67;;;3.24;62.76
34235;BME280;20500;49.856;20.290;2023-12-20T03:10:42;98191.58;;;3.25;62.85
34235;BME280;20500;49.856;20.290;2023-12-20T03:13:47;98198.64;;;3.22;62.97
34235;BME280;20500;49.856;20.290;2023-12-20T03:16:53;98203.96;;;3.10;62.93
34235;BME280;20500;49.856;20.290;2023-12-20T03:20:04;98205.65;;;3.03;63.04
34235;BME280;20500;49.856;20.290;2023-12-20T03:23:10;98208.20;;;3.01;63.09
34235;BME280;20500;49.856;20.290;2023-12-20T03:26:16;98214.60;;;2.99;62.98
34235;BME280;20500;49.856;20.290;2023-12-20T03:29:21;98212.28;;;2.99;62.82
34235;BME280;20500;49.856;20.290;2023-12-20T03:32:27;98212.05;;;2.94;62.83
34235;BME280;20500;49.856;20.290;2023-12-20T03:35:33;98206.70;;;2.83;62.93
34235;BME280;20500;49.856;20.290;2023-12-20T03:38:38;98200.09;;;2.79;62.96
34235;BME280;20500;49.856;20.290;2023-12-20T03:41:44;98198.30;;;2.74;63.10
34235;BME280;20500;49.856;20.290;2023-12-20T03:44:50;98203.14;;;2.62;63.04
34235;BME280;20500;49.856;20.290;2023-12-20T03:47:56;98207.67;;;2.47;63.13
34235;BME280;20500;49.856;20.290;2023-12-20T03:51:02;98211.05;;;2.34;63.25
34235;BME280;20500;49.856;20.290;2023-12-20T03:54:07;98209.90;;;2.21;63.31
34235;BME280;20500;49.856;20.290;2023-12-20T03:57:13;98210.60;;;2.11;63.47
34235;BME280;20500;49.856;20.290;2023-12-20T04:00:19;98212.33;;;2.05;63.40
34235;BME280;20500;49.856;20.290;2023-12-20T04:03:25;98207.27;;;1.98;63.33
34235;BME280;20500;49.856;20.290;2023-12-20T04:06:31;98209.31;;;2.01;63.43
34235;BME280;20500;49.856;20.290;2023-12-20T04:09:36;98205.91;;;1.99;63.48
34235;BME280;20500;49.856;20.290;2023-12-20T04:12:42;98207.59;;;1.99;63.54
34235;BME280;20500;49.856;20.290;2023-12-20T04:15:48;98202.53;;;1.99;63.59
34235;BME280;20500;49.856;20.290;2023-12-20T04:18:55;98196.99;;;1.99;63.63
34235;BME280;20500;49.856;20.290;2023-12-20T04:22:01;98197.14;;;2.01;63.85
34235;BME280;20500;49.856;20.290;2023-12-20T04:25:08;98191.61;;;2.01;63.72
34235;BME280;20500;49.856;20.290;2023-12-20T04:28:14;98190.27;;;2.04;63.80
34235;BME280;20500;49.856;20.290;2023-12-20T04:31:20;98184.47;;;2.04;63.85
34235;BME280;20500;49.856;20.290;2023-12-20T04:34:26;98179.44;;;2.05;63.98
34235;BME280;20500;49.856;20.290;2023-12-20T04:37:31;98181.59;;;2.07;64.34
34235;BME280;20500;49.856;20.290;2023-12-20T04:40:37;98177.17;;;2.08;64.48
34235;BME280;20500;49.856;20.290;2023-12-20T04:43:45;98173.77;;;2.08;64.55
34235;BME280;20500;49.856;20.290;2023-12-20T04:46:51;98171.66;;;2.07;64.69
34235;BME280;20500;49.856;20.290;2023-12-20T04:49:56;98171.73;;;2.10;64.74
34235;BME280;20500;49.856;20.290;2023-12-20T04:53:03;98171.12;;;2.16;64.85
34235;BME280;20500;49.856;20.290;2023-12-20T04:56:09;98169.36;;;2.23;64.97
34235;BME280;20500;49.856;20.290;2023-12-20T04:59:14;98165.70;;;2.31;65.08
34235;BME280;20500;49.856;20.290;2023-12-20T05:02:20;98168.42;;;2.42;65.18
34235;BME280;20500;49.856;20.290;2023-12-20T05:05:26;98175.21;;;2.49;65.20
34235;BME280;20500;49.856;20.290;2023-12-20T05:08:32;98178.13;;;2.56;64.98
34235;BME280;20500;49.856;20.290;2023-12-20T05:11:38;98181.93;;;2.62;65.16
34235;BME280;20500;49.856;20.290;2023-12-20T05:14:44;98180.65;;;2.66;65.35
34235;BME280;20500;49.856;20.290;2023-12-20T05:17:50;98182.24;;;2.70;65.33
34235;BME280;20500;49.856;20.290;2023-12-20T05:20:55;98179.31;;;2.70;65.29
34235;BME280;20500;49.856;20.290;2023-12-20T05:24:03;98174.30;;;2.78;65.30
34235;BME280;20500;49.856;20.290;2023-12-20T05:27:07;98176.23;;;2.91;65.23
34235;BME280;20500;49.856;20.290;2023-12-20T05:30:14;98171.10;;;3.00;65.16
34235;BME280;20500;49.856;20.290;2023-12-20T05:33:20;98167.08;;;3.11;65.23
34235;BME280;20500;49.856;20.290;2023-12-20T05:36:26;98169.02;;;3.21;65.38
34235;BME280;20500;49.856;20.290;2023-12-20T05:39:32;98169.52;;;3.17;65.30
34235;BME280;20500;49.856;20.290;2023-12-20T05:42:38;98165.59;;;3.14;65.29
34235;BME280;20500;49.856;20.290;2023-12-20T05:45:44;98164.17;;;3.19;65.37
34235;BME280;20500;49.856;20.290;2023-12-20T05:48:50;98158.40;;;3.26;65.49
34235;BME280;20500;49.856;20.290;2023-12-20T05:51:56;98148.07;;;3.29;65.51
34235;BME280;20500;49.856;20.290;2023-12-20T05:55:02;98147.12;;;3.33;65.52
34235;BME280;20500;49.856;20.290;2023-12-20T05:58:08;98158.40;;;3.36;65.65
34235;BME280;20500;49.856;20.290;2023-12-20T06:01:15;98166.95;;;3.39;65.59
34235;BME280;20500;49.856;20.290;2023-12-20T06:04:22;98161.33;;;3.36;65.52
34235;BME280;20500;49.856;20.290;2023-12-20T06:07:28;98154.86;;;3.34;65.56
34235;BME280;20500;49.856;20.290;2023-12-20T06:10:34;98150.40;;;3.37;65.64
34235;BME280;20500;49.856;20.290;2023-12-20T06:13:39;98143.33;;;3.40;65.84
34235;BME280;20500;49.856;20.290;2023-12-20T06:16:46;98140.16;;;3.41;65.95
34235;BME280;20500;49.856;20.290;2023-12-20T06:19:50;98143.98;;;3.40;66.06
34235;BME280;20500;49.856;20.290;2023-12-20T06:22:56;98147.36;;;3.36;65.90
34235;BME280;20500;49.856;20.290;2023-12-20T06:26:02;98141.50;;;3.27;66.00
34235;BME280;20500;49.856;20.290;2023-12-20T06:29:08;98165.37;;;3.25;65.99
34235;BME280;20500;49.856;20.290;2023-12-20T06:32:14;98163.17;;;3.20;66.12
34235;BME280;20500;49.856;20.290;2023-12-20T06:35:19;98175.55;;;3.27;66.15
34235;BME280;20500;49.856;20.290;2023-12-20T06:38:26;98184.23;;;3.38;66.21
34235;BME280;20500;49.856;20.290;2023-12-20T06:41:31;98182.55;;;3.53;66.05
34235;BME280;20500;49.856;20.290;2023-12-20T06:44:37;98172.69;;;3.72;66.02
34235;BME280;20500;49.856;20.290;2023-12-20T06:47:42;98179.33;;;3.89;66.29
34235;BME280;20500;49.856;20.290;2023-12-20T06:50:48;98180.80;;;4.02;66.20
34235;BME280;20500;49.856;20.290;2023-12-20T06:53:53;98183.66;;;4.09;66.19
34235;BME280;20500;49.856;20.290;2023-12-20T06:56:59;98187.20;;;4.13;66.39
34235;BME280;20500;49.856;20.290;2023-12-20T07:00:09;98186.65;;;4.16;66.32
34235;BME280;20500;49.856;20.290;2023-12-20T07:03:16;98196.95;;;4.19;66.41
34235;BME280;20500;49.856;20.290;2023-12-20T07:06:22;98200.23;;;4.20;66.75
34235;BME280;20500;49.856;20.290;2023-12-20T07:09:30;98202.98;;;4.21;66.75
34235;BME280;20500;49.856;20.290;2023-12-20T07:12:36;98205.17;;;4.23;66.98
34235;BME280;20500;49.856;20.290;2023-12-20T07:15:42;98204.33;;;4.24;67.18
34235;BME280;20500;49.856;20.290;2023-12-20T07:18:48;98205.39;;;4.26;67.13
34235;BME280;20500;49.856;20.290;2023-12-20T07:21:54;98204.41;;;4.26;67.43
34235;BME280;20500;49.856;20.290;2023-12-20T07:25:00;98205.39;;;4.27;67.60
34235;BME280;20500;49.856;20.290;2023-12-20T07:28:07;98209.95;;;4.30;67.57
34235;BME280;20500;49.856;20.290;2023-12-20T07:31:12;98215.59;;;4.33;67.75
34235;BME280;20500;49.856;20.290;2023-12-20T07:34:20;98222.02;;;4.33;67.76
34235;BME280;20500;49.856;20.290;2023-12-20T07:37:26;98227.01;;;4.33;67.99
34235;BME280;20500;49.856;20.290;2023-12-20T07:40:32;98230.96;;;4.35;68.07
34235;BME280;20500;49.856;20.290;2023-12-20T07:43:39;98236.61;;;4.37;68.34
34235;BME280;20500;49.856;20.290;2023-12-20T07:46:45;98234.54;;;4.40;68.43
34235;BME280;20500;49.856;20.290;2023-12-20T07:49:50;98236.84;;;4.42;68.41
34235;BME280;20500;49.856;20.290;2023-12-20T07:52:57;98239.50;;;4.44;68.51
34235;BME280;20500;49.856;20.290;2023-12-20T07:56:15;98238.63;;;4.46;68.47
34235;BME280;20500;49.856;20.290;2023-12-20T07:59:20;98241.49;;;4.44;68.63
34235;BME280;20500;49.856;20.290;2023-12-20T08:02:36;98246.96;;;4.47;68.79
34235;BME280;20500;49.856;20.290;2023-12-20T08:05:41;98250.67;;;4.49;68.86
34235;BME280;20500;49.856;20.290;2023-12-20T08:08:46;98254.40;;;4.46;68.95
34235;BME280;20500;49.856;20.290;2023-12-20T08:12:06;98252.84;;;4.44;69.14
34235;BME280;20500;49.856;20.290;2023-12-20T08:15:12;98251.16;;;4.45;69.25
34235;BME280;20500;49.856;20.290;2023-12-20T08:18:19;98244.22;;;4.46;69.53
34235;BME280;20500;49.856;20.290;2023-12-20T08:21:24;98248.20;;;4.45;69.60
34235;BME280;20500;49.856;20.290;2023-12-20T08:24:31;98238.36;;;4.45;69.59
34235;BME280;20500;49.856;20.290;2023-12-20T08:27:35;98236.04;;;4.45;69.69
34235;BME280;20500;49.856;20.290;2023-12-20T08:30:41;98243.14;;;4.46;69.84
34235;BME280;20500;49.856;20.290;2023-12-20T08:33:49;98248.07;;;4.48;70.01
34235;BME280;20500;49.856;20.290;2023-12-20T08:36:55;98248.66;;;4.51;70.26
34235;BME280;20500;49.856;20.290;2023-12-20T08:40:01;98246.94;;;4.54;70.14
34235;BME280;20500;49.856;20.290;2023-12-20T08:43:07;98244.73;;;4.56;70.42
34235;BME280;20500;49.856;20.290;2023-12-20T08:46:14;98240.92;;;4.59;70.59
34235;BME280;20500;49.856;20.290;2023-12-20T08:49:20;98242.11;;;4.63;70.72
34235;BME280;20500;49.856;20.290;2023-12-20T08:52:26;98241.38;;;4.69;70.90
34235;BME280;20500;49.856;20.290;2023-12-20T08:55:33;98238.27;;;4.74;70.81
34235;BME280;20500;49.856;20.290;2023-12-20T08:58:39;98235.08;;;4.80;71.02
34235;BME280;20500;49.856;20.290;2023-12-20T09:01:45;98237.17;;;4.86;71.10
34235;BME280;20500;49.856;20.290;2023-12-20T09:04:53;98236.88;;;4.90;71.22
34235;BME280;20500;49.856;20.290;2023-12-20T09:07:59;98242.41;;;4.94;71.26
34235;BME280;20500;49.856;20.290;2023-12-20T09:11:05;98248.59;;;4.97;71.26
34235;BME280;20500;49.856;20.290;2023-12-20T09:14:12;98244.09;;;4.98;71.49
34235;BME280;20500;49.856;20.290;2023-12-20T09:17:18;98241.73;;;4.99;71.43
34235;BME280;20500;49.856;20.290;2023-12-20T09:20:25;98239.98;;;4.98;71.53
34235;BME280;20500;49.856;20.290;2023-12-20T09:23:32;98239.61;;;4.98;71.44
34235;BME280;20500;49.856;20.290;2023-12-20T09:26:37;98236.36;;;4.97;71.64
34235;BME280;20500;49.856;20.290;2023-12-20T09:29:44;98234.89;;;4.99;71.88
34235;BME280;20500;49.856;20.290;2023-12-20T09:32:49;98232.60;;;5.01;72.02
34235;BME280;20500;49.856;20.290;2023-12-20T09:35:55;98231.33;;;5.03;71.93
34235;BME280;20500;49.856;20.290;2023-12-20T09:39:01;98228.33;;;5.06;72.08
34235;BME280;20500;49.856;20.290;2023-12-20T09:42:08;98217.61;;;5.09;72.04
34235;BME280;20500;49.856;20.290;2023-12-20T09:45:17;98217.85;;;5.10;72.10
34235;BME280;20500;49.856;20.290;2023-12-20T09:48:27;98215.98;;;5.10;72.12
34235;BME280;20500;49.856;20.290;2023-12-20T09:51:34;98214.80;;;5.09;72.30
34235;BME280;20500;49.856;20.290;2023-12-20T09:54:41;98216.96;;;5.11;72.28
34235;BME280;20500;49.856;20.290;2023-12-20T09:57:49;98215.33;;;5.11;72.40
34235;BME280;20500;49.856;20.290;2023-12-20T10:00:55;98213.45;;;5.10;72.54
34235;BME280;20500;49.856;20.290;2023-12-20T10:04:01;98215.23;;;5.10;72.56
34235;BME280;20500;49.856;20.290;2023-12-20T10:07:15;98214.00;;;5.12;72.63
34235;BME280;20500;49.856;20.290;2023-12-20T10:10:21;98205.27;;;5.11;72.81
34235;BME280;20500;49.856;20.290;2023-12-20T10:13:40;98204.98;;;5.10;72.78
34235;BME280;20500;49.856;20.290;2023-12-20T10:16:46;98202.44;;;5.09;73.00
34235;BME280;20500;49.856;20.290;2023-12-20T10:19:53;98201.98;;;5.10;73.12
34235;BME280;20500;49.856;20.290;2023-12-20T10:23:00;98201.24;;;5.10;73.21
34235;BME280;20500;49.856;20.290;2023-12-20T10:26:06;98200.66;;;5.09;73.15
34235;BME280;20500;49.856;20.290;2023-12-20T10:29:12;98196.80;;;5.10;73.36
34235;BME280;20500;49.856;20.290;2023-12-20T10:32:25;98196.80;;;5.13;73.46
34235;BME280;20500;49.856;20.290;2023-12-20T10:35:31;98203.98;;;5.13;73.49
34235;BME280;20500;49.856;20.290;2023-12-20T10:38:38;98202.23;;;5.09;73.65
34235;BME280;20500;49.856;20.290;2023-12-20T10:41:47;98197.80;;;5.07;73.71
34235;BME280;20500;49.856;20.290;2023-12-20T10:44:53;98199.13;;;5.05;73.69
34235;BME280;20500;49.856;20.290;2023-12-20T10:47:59;98198.30;;;5.05;73.74
34235;BME280;20500;49.856;20.290;2023-12-20T10:51:04;98197.17;;;5.03;73.91
34235;BME280;20500;49.856;20.290;2023-12-20T10:54:10;98197.11;;;5.01;74.00
34235;BME280;20500;49.856;20.290;2023-12-20T10:57:16;98195.13;;;4.97;74.10
34235;BME280;20500;49.856;20.290;2023-12-20T11:00:24;98199.70;;;4.95;74.24
34235;BME280;20500;49.856;20.290;2023-12-20T11:03:34;98194.00;;;4.93;74.42
34235;BME280;20500;49.856;20.290;2023-12-20T11:06:45;98193.95;;;4.92;74.45
34235;BME280;20500;49.856;20.290;2023-12-20T11:09:58;98193.30;;;4.93;74.62
34235;BME280;20500;49.856;20.290;2023-12-20T11:13:10;98198.02;;;4.96;74.84
34235;BME280;20500;49.856;20.290;2023-12-20T11:16:19;98201.38;;;4.98;75.00
34235;BME280;20500;49.856;20.290;2023-12-20T11:19:28;98194.36;;;4.99;74.99
34235;BME280;20500;49.856;20.290;2023-12-20T11:22:35;98189.65;;;5.01;75.09
34235;BME280;20500;49.856;20.290;2023-12-20T11:25:49;98177.24;;;5.03;75.08
34235;BME280;20500;49.856;20.290;2023-12-20T11:29:33;98175.31;;;5.06;75.24
34235;BME280;20500;49.856;20.290;2023-12-20T11:32:41;98174.95;;;5.09;75.37
34235;BME280;20500;49.856;20.290;2023-12-20T11:35:48;98183.21;;;5.12;75.34
34235;BME280;20500;49.856;20.290;2023-12-20T11:38:57;98181.77;;;5.11;75.41
34235;BME280;20500;49.856;20.290;2023-12-20T11:42:08;98178.59;;;5.08;75.37
34235;BME280;20500;49.856;20.290;2023-12-20T11:45:17;98176.77;;;5.09;75.45
34235;BME280;20500;49.856;20.290;2023-12-20T11:48:24;98178.32;;;5.09;75.62
34235;BME280;20500;49.856;20.290;2023-12-20T11:51:30;98180.40;;;5.15;75.82
34235;BME280;20500;49.856;20.290;2023-12-20T11:54:35;98183.45;;;5.17;75.73
34235;BME280;20500;49.856;20.290;2023-12-20T11:57:44;98185.03;;;5.16;75.67
34235;BME280;20500;49.856;20.290;2023-12-20T12:00:51;98184.21;;;5.14;75.91
34235;BME280;20500;49.856;20.290;2023-12-20T12:04:03;98180.95;;;5.15;75.96
34235;BME280;20500;49.856;20.290;2023-12-20T12:07:09;98177.34;;;5.15;76.09
34235;BME280;20500;49.856;20.290;2023-12-20T12:10:15;98181.34;;;5.14;76.11
34235;BME280;20500;49.856;20.290;2023-12-20T12:13:20;98180.41;;;5.13;76.18
34235;BME280;20500;49.856;20.290;2023-12-20T12:16:26;98185.75;;;5.12;76.09
34235;BME280;20500;49.856;20.290;2023-12-20T12:19:33;98190.76;;;5.11;76.14
34235;BME280;20500;49.856;20.290;2023-12-20T12:22:42;98193.20;;;5.08;76.32
34235;BME280;20500;49.856;20.290;2023-12-20T12:25:49;98187.48;;;5.09;76.51
34235;BME280;20500;49.856;20.290;2023-12-20T12:28:55;98186.38;;;5.13;76.49
34235;BME280;20500;49.856;20.290;2023-12-20T12:31:59;98181.11;;;5.13;76.49
34235;BME280;20500;49.856;20.290;2023-12-20T12:35:15;98176.13;;;5.16;76.65
34235;BME280;20500;49.856;20.290;2023-12-20T12:38:22;98170.13;;;5.17;76.56
34235;BME280;20500;49.856;20.290;2023-12-20T12:41:30;98171.58;;;5.17;76.70
34235;BME280;20500;49.856;20.290;2023-12-20T12:44:36;98156.23;;;5.16;76.66
34235;BME280;20500;49.856;20.290;2023-12-20T12:47:42;98149.02;;;5.18;76.67
34235;BME280;20500;49.856;20.290;2023-12-20T12:50:48;98152.38;;;5.14;76.71
34235;BME280;20500;49.856;20.290;2023-12-20T12:53:56;98148.61;;;5.16;76.76
34235;BME280;20500;49.856;20.290;2023-12-20T12:57:02;98146.93;;;5.17;76.80
34235;BME280;20500;49.856;20.290;2023-12-20T13:00:10;98145.91;;;5.20;76.95
34235;BME280;20500;49.856;20.290;2023-12-20T13:03:16;98144.30;;;5.23;77.03
34235;BME280;20500;49.856;20.290;2023-12-20T13:06:22;98151.06;;;5.22;76.96
34235;BME280;20500;49.856;20.290;2023-12-20T13:09:27;98158.74;;;5.22;76.96
34235;BME280;20500;49.856;20.290;2023-12-20T13:12:33;98172.67;;;5.22;77.01
34235;BME280;20500;49.856;20.290;2023-12-20T13:15:39;98174.85;;;5.20;76.97
34235;BME280;20500;49.856;20.290;2023-12-20T13:18:44;98171.10;;;5.21;77.10
34235;BME280;20500;49.856;20.290;2023-12-20T13:21:50;98168.38;;;5.23;77.09
34235;BME280;20500;49.856;20.290;2023-12-20T13:24:56;98160.23;;;5.22;77.04
34235;BME280;20500;49.856;20.290;2023-12-20T13:28:02;98173.02;;;5.22;77.13
34235;BME280;20500;49.856;20.290;2023-12-20T13:31:06;98174.44;;;5.20;77.11
34235;BME280;20500;49.856;20.290;2023-12-20T13:34:12;98177.67;;;5.19;77.24
34235;BME280;20500;49.856;20.290;2023-12-20T13:37:19;98179.37;;;5.20;77.13
34235;BME280;20500;49.856;20.290;2023-12-20T13:40:25;98180.59;;;5.17;77.13
34235;BME280;20500;49.856;20.290;2023-12-20T13:43:32;98180.14;;;5.16;77.13
34235;BME280;20500;49.856;20.290;2023-12-20T13:46:42;98188.06;;;5.14;77.10
34235;BME280;20500;49.856;20.290;2023-12-20T13:49:49;98191.41;;;5.13;77.17
34235;BME280;20500;49.856;20.290;2023-12-20T13:52:55;98195.65;;;5.14;77.37
34235;BME280;20500;49.856;20.290;2023-12-20T13:56:01;98205.02;;;5.12;77.29
34235;BME280;20500;49.856;20.290;2023-12-20T13:59:07;98215.52;;;5.10;77.27
34235;BME280;20500;49.856;20.290;2023-12-20T14:02:13;98218.02;;;5.08;77.23
34235;BME280;20500;49.856;20.290;2023-12-20T14:05:19;98213.35;;;5.06;77.29
34235;BME280;20500;49.856;20.290;2023-12-20T14:08:30;98215.75;;;5.07;77.29
34235;BME280;20500;49.856;20.290;2023-12-20T14:11:35;98221.08;;;5.06;77.10
34235;BME280;20500;49.856;20.290;2023-12-20T14:14:45;98215.56;;;5.03;77.06
34235;BME280;20500;49.856;20.290;2023-12-20T14:17:51;98209.44;;;5.00;77.15
34235;BME280;20500;49.856;20.290;2023-12-20T14:20:57;98204.11;;;4.99;77.20
34235;BME280;20500;49.856;20.290;2023-12-20T14:24:03;98186.83;;;4.98;77.21
34235;BME280;20500;49.856;20.290;2023-12-20T14:27:09;98185.58;;;4.98;77.15
34235;BME280;20500;49.856;20.290;2023-12-20T14:30:15;98186.48;;;4.98;77.34
34235;BME280;20500;49.856;20.290;2023-12-20T14:33:21;98184.56;;;4.94;77.15
34235;BME280;20500;49.856;20.290;2023-12-20T14:36:27;98192.07;;;4.92;77.28
34235;BME280;20500;49.856;20.290;2023-12-20T14:39:34;98194.85;;;4.94;77.23
34235;BME280;20500;49.856;20.290;2023-12-20T14:42:43;98185.64;;;4.94;77.37
34235;BME280;20500;49.856;20.290;2023-12-20T14:45:50;98186.21;;;4.95;77.36
34235;BME280;20500;49.856;20.290;2023-12-20T14:48:54;98186.31;;;4.96;77.28
34235;BME280;20500;49.856;20.290;2023-12-20T14:52:00;98184.70;;;4.97;77.25
34235;BME280;20500;49.856;20.290;2023-12-20T14:55:07;98182.65;;;4.96;77.19
34235;BME280;20500;49.856;20.290;2023-12-20T14:58:13;98185.06;;;4.94;77.15
34235;BME280;20500;49.856;20.290;2023-12-20T15:01:20;98187.22;;;4.89;77.01
34235;BME280;20500;49.856;20.290;2023-12-20T15:04:27;98191.57;;;4.82;76.93
34235;BME280;20500;49.856;20.290;2023-12-20T15:07:34;98190.64;;;4.77;76.97
34235;BME280;20500;49.856;20.290;2023-12-20T15:10:41;98189.19;;;4.76;76.98
34235;BME280;20500;49.856;20.290;2023-12-20T15:13:46;98183.67;;;4.72;76.93
34235;BME280;20500;49.856;20.290;2023-12-20T15:16:59;98180.67;;;4.70;76.94
34235;BME280;20500;49.856;20.290;2023-12-20T15:20:06;98175.16;;;4.66;76.87
34235;BME280;20500;49.856;20.290;2023-12-20T15:23:14;98179.01;;;4.62;76.93
34235;BME280;20500;49.856;20.290;2023-12-20T15:26:20;98183.31;;;4.57;76.91
34235;BME280;20500;49.856;20.290;2023-12-20T15:29:25;98182.40;;;4.56;76.83
34235;BME280;20500;49.856;20.290;2023-12-20T15:32:31;98183.39;;;4.55;76.96
34235;BME280;20500;49.856;20.290;2023-12-20T15:35:41;98185.39;;;4.54;76.95
34235;BME280;20500;49.856;20.290;2023-12-20T15:38:47;98185.96;;;4.49;76.90
34235;BME280;20500;49.856;20.290;2023-12-20T15:41:53;98183.33;;;4.49;76.92
34235;BME280;20500;49.856;20.290;2023-12-20T15:44:58;98177.34;;;4.51;76.93
34235;BME280;20500;49.856;20.290;2023-12-20T15:48:05;98170.95;;;4.50;76.89
34235;BME280;20500;49.856;20.290;2023-12-20T15:51:12;98172.97;;;4.52;76.88
34235;BME280;20500;49.856;20.290;2023-12-20T15:54:17;98171.30;;;4.50;76.87
34235;BME280;20500;49.856;20.290;2023-12-20T15:57:23;98170.09;;;4.48;76.84
34235;BME280;20500;49.856;20.290;2023-12-20T16:00:30;98173.73;;;4.50;76.89
34235;BME280;20500;49.856;20.290;2023-12-20T16:03:36;98181.93;;;4.50;76.93
34235;BME280;20500;49.856;20.290;2023-12-20T16:06:54;98187.07;;;4.51;76.92
34235;BME280;20500;49.856;20.290;2023-12-20T16:09:58;98181.27;;;4.50;76.99
34235;BME280;20500;49.856;20.290;2023-12-20T16:13:05;98199.04;;;4.51;77.07
34235;BME280;20500;49.856;20.290;2023-12-20T16:16:12;98209.15;;;4.54;76.96
34235;BME280;20500;49.856;20.290;2023-12-20T16:19:17;98210.90;;;4.56;76.92
34235;BME280;20500;49.856;20.290;2023-12-20T16:22:23;98214.45;;;4.58;76.89
34235;BME280;20500;49.856;20.290;2023-12-20T16:25:31;98220.48;;;4.59;76.87
34235;BME280;20500;49.856;20.290;2023-12-20T16:28:37;98217.04;;;4.61;76.88